Time;durP1;ratioP1;P1;durP2;ratioP2;P2;SDS_P1;SDS_P2;PMS_P1;PMS_P2;Temp;Humidity;BMP_temperature;BMP_pressure;BME280_temperature;BME280_humidity;BME280_pressure;Samples;Min_cycle;Max_cycle;Signal;HPM_P1;HPM_P2
2021/12/06 00:01:05;;;;;;;28.17;21.50;;;;;;;2.68;96.09;91799.47;5032785;28;20198;-76
2021/12/06 00:03:39;;;;;;;23.53;19.87;;;;;;;2.92;96.45;91800.63;5061244;28;21113;-76
2021/12/06 00:06:05;;;;;;;21.37;18.90;;;;;;;2.70;95.37;91780.19;5029586;28;20266;-77
2021/12/06 00:08:31;;;;;;;21.73;19.50;;;;;;;2.77;94.98;91795.44;5030358;28;20218;-77
2021/12/06 00:10:57;;;;;;;23.70;19.70;;;;;;;2.74;95.12;91803.66;5031072;28;20221;-77
2021/12/06 00:13:23;;;;;;;25.23;20.13;;;;;;;2.65;95.50;91797.41;5031690;28;20233;-76
2021/12/06 00:15:50;;;;;;;28.40;21.40;;;;;;;2.33;96.16;91763.25;5031757;28;20199;-77
2021/12/06 00:18:17;;;;;;;24.97;20.53;;;;;;;2.63;95.95;91794.34;5030310;28;20218;-77
2021/12/06 00:20:43;;;;;;;22.33;19.93;;;;;;;2.59;96.46;91788.09;5030936;28;20254;-81
2021/12/06 00:23:08;;;;;;;23.67;20.40;;;;;;;2.48;96.08;91792.44;5031499;28;20225;-75
2021/12/06 00:25:35;;;;;;;26.50;21.13;;;;;;;2.59;97.15;91808.72;5031303;28;20210;-74
2021/12/06 00:28:00;;;;;;;23.90;20.07;;;;;;;2.73;95.94;91820.91;5030236;28;20215;-75
2021/12/06 00:30:26;;;;;;;30.17;22.00;;;;;;;2.75;95.39;91830.97;5030455;28;20186;-75
2021/12/06 00:32:51;;;;;;;27.27;20.50;;;;;;;2.59;95.43;91829.31;5030039;28;20238;-75
2021/12/06 00:35:21;;;;;;;29.97;22.00;;;;;;;2.61;96.03;91832.44;5031008;28;20195;-75
2021/12/06 00:37:58;;;;;;;27.97;22.20;;;;;;;2.59;96.13;91819.03;5031891;28;20234;-75
2021/12/06 00:40:35;;;;;;;26.43;22.27;;;;;;;2.60;95.74;91826.50;5031131;28;20190;-73
2021/12/06 00:43:01;;;;;;;26.80;21.87;;;;;;;2.62;94.84;91834.75;5030939;28;20222;-75
2021/12/06 00:45:27;;;;;;;33.20;22.80;;;;;;;2.47;95.43;91839.06;5032101;28;20254;-74
2021/12/06 00:47:52;;;;;;;27.60;22.53;;;;;;;2.50;96.34;91823.88;5031680;28;20226;-75
2021/12/06 00:50:20;;;;;;;28.83;21.93;;;;;;;2.67;95.70;91846.91;5030590;28;20191;-74
2021/12/06 00:52:46;;;;;;;28.33;23.13;;;;;;;2.77;94.70;91844.38;5029876;28;20227;-75
2021/12/06 00:55:13;;;;;;;28.17;22.93;;;;;;;2.44;94.80;91817.16;5030975;28;20195;-75
2021/12/06 00:57:40;;;;;;;32.83;25.03;;;;;;;2.71;94.52;91835.06;5031016;28;20222;-74
2021/12/06 01:00:12;;;;;;;30.07;22.83;;;;;;;2.51;94.27;91811.75;5030838;28;20206;-75
2021/12/06 01:02:38;;;;;;;31.37;23.80;;;;;;;2.49;95.38;91837.00;5030000;28;20226;-74
2021/12/06 01:05:05;;;;;;;33.30;25.30;;;;;;;2.67;97.17;91816.75;5030570;28;20193;-75
2021/12/06 01:07:32;;;;;;;35.87;23.87;;;;;;;2.75;98.22;91838.69;5030327;28;20227;-75
2021/12/06 01:09:57;;;;;;;37.57;25.67;;;;;;;2.64;97.42;91819.06;5031918;28;21159;-75
2021/12/06 01:12:23;;;;;;;31.67;24.67;;;;;;;2.71;96.29;91835.06;5029699;28;20233;-75
2021/12/06 01:14:48;;;;;;;33.80;24.23;;;;;;;2.40;95.74;91798.06;5029565;28;20191;-75
2021/12/06 01:17:14;;;;;;;31.00;24.27;;;;;;;2.79;95.61;91829.44;5030374;28;20578;-75
2021/12/06 01:19:40;;;;;;;31.43;23.83;;;;;;;2.77;94.63;91803.91;5029886;28;20209;-75
2021/12/06 01:24:45;;;;;;;33.83;23.07;;;;;;;2.87;94.38;91829.75;5031180;28;20224;-74
2021/12/06 01:30:53;;;;;;;29.93;24.00;;;;;;;2.87;95.00;91826.38;5029903;28;20197;-75
2021/12/06 01:40:49;;;;;;;21.40;19.17;;;;;;;3.47;96.12;91805.94;5030005;28;20198;-75
2021/12/06 01:43:15;;;;;;;23.53;19.90;;;;;;;3.43;96.75;91804.91;5030584;28;20987;-75
2021/12/06 01:45:40;;;;;;;22.47;18.80;;;;;;;3.35;96.97;91791.75;5030542;28;20183;-75
2021/12/06 01:48:06;;;;;;;22.43;19.03;;;;;;;3.56;96.97;91781.22;5029857;28;20233;-75
2021/12/06 01:50:32;;;;;;;23.07;20.67;;;;;;;3.65;97.24;91792.56;5029549;28;20202;-75
2021/12/06 01:53:02;;;;;;;23.03;19.00;;;;;;;3.53;97.31;91804.16;5028733;28;20222;-75
2021/12/06 01:55:32;;;;;;;20.30;18.13;;;;;;;3.54;98.34;91783.28;5029275;28;20216;-75
2021/12/06 01:57:58;;;;;;;23.57;19.70;;;;;;;3.64;97.76;91764.44;5029230;28;20288;-75
2021/12/06 02:00:50;;;;;;;21.73;19.43;;;;;;;3.57;97.56;91756.97;5030342;28;20195;-75
2021/12/06 02:03:16;;;;;;;21.23;19.00;;;;;;;3.33;97.39;91772.13;5026092;28;20229;-75
2021/12/06 02:05:44;;;;;;;22.27;19.90;;;;;;;3.42;97.99;91784.53;5030516;28;20213;-75
2021/12/06 02:08:10;;;;;;;21.00;18.00;;;;;;;3.62;97.29;91767.28;5029534;28;20215;-75
2021/12/06 02:10:37;;;;;;;22.30;19.10;;;;;;;3.61;95.99;91768.31;5027318;28;20193;-75
2021/12/06 02:13:03;;;;;;;23.77;20.07;;;;;;;3.42;96.75;91772.44;5027660;28;20230;-78
2021/12/06 02:18:11;;;;;;;20.77;18.17;;;;;;;3.60;96.04;91800.31;5028691;28;20234;-75
2021/12/06 02:20:46;;;;;;;19.07;17.07;;;;;;;3.81;95.59;91812.22;5029279;28;20178;-75
2021/12/06 02:23:11;;;;;;;21.50;19.20;;;;;;;3.94;94.10;91811.69;5028021;28;20238;-75
2021/12/06 02:25:37;;;;;;;20.23;18.07;;;;;;;3.89;94.83;91819.44;5031072;28;20202;-74
2021/12/06 02:28:03;;;;;;;22.40;20.07;;;;;;;3.97;94.45;91816.34;5030107;28;20222;-75
2021/12/06 02:30:29;;;;;;;22.40;19.00;;;;;;;4.01;94.62;91817.38;5029185;28;20183;-75
2021/12/06 02:32:54;;;;;;;23.70;20.13;;;;;;;3.92;94.32;91777.59;5030551;28;20236;-75
2021/12/06 02:35:23;;;;;;;21.17;18.97;;;;;;;3.98;95.13;91794.66;5029192;28;20222;-74
2021/12/06 02:37:50;;;;;;;21.47;19.27;;;;;;;3.82;95.32;91782.00;5029210;28;20230;-74
2021/12/06 02:40:23;;;;;;;22.70;20.23;;;;;;;3.88;96.70;91780.97;5028975;28;20198;-74
2021/12/06 02:42:49;;;;;;;23.67;21.07;;;;;;;4.06;96.12;91783.03;5032409;28;20303;-75
2021/12/06 02:45:17;;;;;;;23.77;20.10;;;;;;;4.17;95.49;91772.44;5033711;28;20199;-75
2021/12/06 02:47:43;;;;;;;26.10;21.00;;;;;;;4.31;94.94;91791.53;5034933;28;20226;-75
2021/12/06 02:50:11;;;;;;;23.33;19.70;;;;;;;4.46;94.37;91777.81;5033586;28;20190;-75
2021/12/06 02:52:39;;;;;;;24.63;19.37;;;;;;;4.48;93.87;91776.50;5033902;28;20229;-75
2021/12/06 02:55:25;;;;;;;24.67;17.93;;;;;;;4.46;94.10;91757.94;5032983;28;20202;-75
2021/12/06 02:57:55;;;;;;;23.47;19.33;;;;;;;4.29;93.87;91746.34;5033653;28;20218;-79
2021/12/06 03:00:22;;;;;;;19.70;17.80;;;;;;;4.32;94.23;91762.09;5033487;28;20639;-79
2021/12/06 03:02:48;;;;;;;20.80;17.77;;;;;;;4.32;94.21;91767.25;5032857;28;20218;-80
2021/12/06 03:05:14;;;;;;;22.73;20.27;;;;;;;4.27;93.88;91764.69;5032819;28;20229;-79
2021/12/06 03:07:39;;;;;;;21.50;18.47;;;;;;;4.11;94.19;91764.97;5032216;28;20246;-80
2021/12/06 03:10:06;;;;;;;21.57;19.37;;;;;;;4.27;93.81;91775.00;5033376;28;20258;-78
2021/12/06 03:12:32;;;;;;;21.00;18.77;;;;;;;4.25;93.32;91756.41;5032740;28;20270;-80
2021/12/06 03:14:59;;;;;;;22.17;18.50;;;;;;;4.11;93.08;91752.81;5033350;28;20186;-80
2021/12/06 03:17:28;;;;;;;21.83;19.63;;;;;;;4.11;93.62;91776.06;5032904;28;20249;-80
2021/12/06 03:19:54;;;;;;;21.53;18.40;;;;;;;4.11;92.64;91776.06;5032635;28;20218;-79
2021/12/06 03:22:20;;;;;;;22.90;18.63;;;;;;;3.97;93.29;91785.34;5032715;28;20231;-79
2021/12/06 03:24:46;;;;;;;21.60;19.20;;;;;;;3.95;92.99;91800.34;5032836;28;20207;-80
2021/12/06 03:27:13;;;;;;;20.90;18.70;;;;;;;3.69;93.86;91783.28;5032256;28;20234;-79
2021/12/06 03:29:39;;;;;;;22.83;19.97;;;;;;;3.90;96.33;91789.22;5034544;28;20230;-79
2021/12/06 03:32:05;;;;;;;21.93;18.87;;;;;;;3.95;95.28;91787.44;5031913;28;20227;-80
2021/12/06 03:34:32;;;;;;;20.03;17.93;;;;;;;3.88;94.70;91780.97;5032790;28;20204;-79
2021/12/06 03:37:01;;;;;;;22.03;19.87;;;;;;;3.91;94.88;91773.50;5032027;28;20226;-79
2021/12/06 03:39:33;;;;;;;21.87;19.53;;;;;;;3.97;93.63;91759.53;5032982;28;20202;-80
2021/12/06 03:42:04;;;;;;;19.80;17.63;;;;;;;3.90;94.03;91748.72;5031692;28;20231;-80
2021/12/06 03:44:30;;;;;;;20.53;18.43;;;;;;;3.96;94.08;91763.16;5032238;28;20183;-80
2021/12/06 03:47:00;;;;;;;20.83;17.57;;;;;;;3.95;93.74;91761.63;5031467;28;20233;-80
2021/12/06 03:49:26;;;;;;;22.77;17.00;;;;;;;3.89;94.26;91734.25;5033297;28;20197;-79
2021/12/06 03:51:52;;;;;;;19.10;17.10;;;;;;;3.72;95.08;91740.72;5031130;28;20218;-80
2021/12/06 03:54:22;;;;;;;17.60;15.80;;;;;;;4.00;94.43;91764.19;5031443;28;20214;-79
2021/12/06 03:56:48;;;;;;;18.93;17.03;;;;;;;4.07;94.78;91758.75;5032099;28;20282;-79
2021/12/06 03:59:14;;;;;;;17.27;15.67;;;;;;;4.18;93.76;91752.56;5032369;28;20201;-79
2021/12/06 04:01:40;;;;;;;19.13;16.87;;;;;;;4.06;93.46;91727.00;5032350;28;20230;-79
2021/12/06 04:04:07;;;;;;;17.70;16.00;;;;;;;4.23;93.38;91762.88;5032283;28;20187;-79
2021/12/06 04:06:34;;;;;;;19.27;16.83;;;;;;;4.20;93.42;91751.25;5032512;28;20238;-80
2021/12/06 04:09:00;;;;;;;17.07;15.37;;;;;;;4.16;93.89;91745.06;5031881;28;20179;-79
2021/12/06 04:11:26;;;;;;;18.80;17.00;;;;;;;4.05;94.73;91756.44;5031468;28;20308;-80
2021/12/06 04:13:51;;;;;;;17.30;15.70;;;;;;;4.08;94.88;91755.91;5032214;28;20210;-79
2021/12/06 04:16:17;;;;;;;18.87;16.90;;;;;;;4.08;94.23;91753.34;5031491;28;20225;-80
2021/12/06 04:18:44;;;;;;;19.13;17.27;;;;;;;4.21;94.07;91759.78;5032481;28;20296;-78
2021/12/06 04:21:10;;;;;;;18.57;16.83;;;;;;;3.94;93.58;91707.66;5031633;28;21163;-79
2021/12/06 04:23:36;;;;;;;17.90;16.23;;;;;;;3.95;93.85;91714.38;5030284;28;20205;-79
2021/12/06 04:26:01;;;;;;;18.73;16.77;;;;;;;4.01;93.68;91726.25;5032486;28;20198;-79
2021/12/06 04:28:29;;;;;;;18.17;16.33;;;;;;;3.83;94.17;91703.56;5030825;28;20248;-80
2021/12/06 04:30:56;;;;;;;16.97;15.37;;;;;;;3.82;94.20;91725.22;5032081;28;20195;-79
2021/12/06 04:33:22;;;;;;;19.80;17.90;;;;;;;4.00;94.33;91729.88;5032285;28;20226;-79
2021/12/06 04:35:48;;;;;;;18.57;16.57;;;;;;;4.10;95.45;91753.84;5031526;28;20191;-79
2021/12/06 04:38:14;;;;;;;21.03;18.93;;;;;;;4.06;95.13;91757.97;5030495;28;20211;-80
2021/12/06 04:40:40;;;;;;;22.53;18.77;;;;;;;4.25;95.11;91761.56;5031651;28;20194;-72
2021/12/06 04:43:05;;;;;;;25.93;22.30;;;;;;;4.50;93.88;91771.09;5028703;28;20246;-75
2021/12/06 04:45:32;;;;;;;28.43;21.80;;;;;;;4.14;94.81;91770.38;5029921;28;20249;-75
2021/12/06 04:47:57;;;;;;;30.47;22.63;;;;;;;4.01;96.67;91757.22;5028864;28;20226;-76
2021/12/06 04:50:26;;;;;;;30.70;21.87;;;;;;;4.19;95.75;91777.34;5030403;28;20208;-77
2021/12/06 04:52:54;;;;;;;32.47;23.77;;;;;;;4.43;95.80;91784.31;5028524;28;20222;-73
2021/12/06 04:55:39;;;;;;;28.33;22.23;;;;;;;4.41;94.99;91783.78;5030475;28;20210;-72
2021/12/06 04:58:06;;;;;;;26.87;21.93;;;;;;;4.36;94.38;91755.38;5029065;28;20226;-73
2021/12/06 05:00:49;;;;;;;26.87;21.37;;;;;;;4.56;94.63;91768.22;5029609;28;20226;-75
2021/12/06 05:03:16;;;;;;;25.03;20.43;;;;;;;4.63;93.43;91773.91;5027992;28;20218;-75
2021/12/06 05:05:55;;;;;;;24.90;18.77;;;;;;;4.51;93.59;91770.81;5029443;28;20184;-77
2021/12/06 05:08:26;;;;;;;24.53;19.43;;;;;;;4.35;93.56;91730.56;5029434;28;20314;-72
2021/12/06 05:10:54;;;;;;;23.33;20.50;;;;;;;4.63;93.53;91771.34;5029133;28;20179;-75
2021/12/06 05:13:20;;;;;;;25.43;20.70;;;;;;;4.70;93.50;91778.81;5029258;28;20231;-74
2021/12/06 05:15:46;;;;;;;23.33;19.60;;;;;;;4.39;93.86;91777.34;5029746;28;20190;-72
2021/12/06 05:18:12;;;;;;;25.90;20.93;;;;;;;4.08;96.27;91773.22;5029730;28;20225;-75
2021/12/06 05:20:39;;;;;;;22.73;20.40;;;;;;;4.52;95.42;91792.28;5030168;28;20203;-73
2021/12/06 05:23:06;;;;;;;26.70;20.47;;;;;;;4.55;93.88;91771.88;5028211;28;20274;-74
2021/12/06 05:25:33;;;;;;;22.60;19.43;;;;;;;4.58;94.07;91776.50;5028968;28;20194;-76
2021/12/06 05:27:59;;;;;;;21.50;19.23;;;;;;;4.57;94.28;91798.22;5026788;28;20230;-76
2021/12/06 05:30:26;;;;;;;21.20;19.13;;;;;;;4.62;93.86;91808.53;5029061;28;20199;-75
2021/12/06 05:32:53;;;;;;;20.63;18.47;;;;;;;4.45;94.27;91792.53;5027105;28;20290;-73
2021/12/06 05:35:19;;;;;;;21.80;19.50;;;;;;;4.55;93.95;91795.13;5030477;28;20197;-74
2021/12/06 05:37:49;;;;;;;20.87;18.77;;;;;;;4.60;93.83;91773.66;5028638;28;20277;-77
2021/12/06 05:40:19;;;;;;;27.37;20.40;;;;;;;4.57;94.17;91780.13;5029781;28;20194;-82
2021/12/06 05:42:45;;;;;;;25.30;20.20;;;;;;;4.54;94.21;91780.66;5030013;28;20234;-81
2021/12/06 05:45:13;;;;;;;25.30;20.33;;;;;;;4.61;93.72;91770.03;5030728;28;20199;-81
2021/12/06 05:47:39;;;;;;;22.57;20.13;;;;;;;4.49;94.30;91769.53;5030213;28;20222;-81
2021/12/06 05:50:06;;;;;;;25.20;21.50;;;;;;;4.43;93.93;91766.22;5031009;28;20258;-81
2021/12/06 05:52:31;;;;;;;21.40;19.30;;;;;;;4.38;93.96;91755.88;5028076;28;20223;-81
2021/12/06 05:54:57;;;;;;;28.13;23.63;;;;;;;4.33;94.50;91762.84;5029311;28;20226;-81
2021/12/06 05:57:22;;;;;;;26.27;22.43;;;;;;;4.04;95.03;91729.09;5027421;28;20218;-80
2021/12/06 05:59:48;;;;;;;31.47;24.00;;;;;;;4.18;95.11;91757.72;5028194;28;20187;-80
2021/12/06 06:02:14;;;;;;;27.07;23.17;;;;;;;4.12;95.32;91766.50;5028259;28;20253;-80
2021/12/06 06:04:40;;;;;;;32.43;25.13;;;;;;;4.00;96.59;91794.41;5029112;28;20199;-80
2021/12/06 06:07:06;;;;;;;37.00;27.70;;;;;;;4.23;96.52;91799.84;5028663;28;20268;-81
2021/12/06 06:09:32;;;;;;;43.37;28.53;;;;;;;4.38;96.30;91794.63;5029273;28;20206;-80
2021/12/06 06:11:59;;;;;;;40.13;27.57;;;;;;;4.25;97.98;91789.25;5029282;28;20253;-80
2021/12/06 06:14:25;;;;;;;43.30;27.97;;;;;;;4.23;97.44;91786.13;5028183;28;20210;-80
2021/12/06 06:16:52;;;;;;;39.07;27.30;;;;;;;4.43;97.06;91786.09;5028586;28;20245;-84
2021/12/06 06:19:22;;;;;;;37.43;28.37;;;;;;;4.24;96.31;91741.97;5031221;28;20182;-80
2021/12/06 06:21:48;;;;;;;37.83;28.83;;;;;;;4.44;96.69;91726.41;5028051;28;20233;-81
2021/12/06 06:24:14;;;;;;;37.23;29.27;;;;;;;5.01;95.50;91784.66;5030149;28;20308;-80
2021/12/06 06:26:40;;;;;;;31.27;25.07;;;;;;;5.14;94.33;91794.44;5029913;28;20227;-80
2021/12/06 06:29:05;;;;;;;35.30;26.67;;;;;;;5.25;93.60;91793.31;5029701;28;20199;-80
2021/12/06 06:31:31;;;;;;;37.10;26.37;;;;;;;5.36;92.46;91793.03;5029448;28;20257;-80
2021/12/06 06:33:56;;;;;;;36.90;27.57;;;;;;;5.42;92.55;91809.28;5030542;28;20214;-80
2021/12/06 06:36:22;;;;;;;32.60;25.53;;;;;;;5.53;92.09;91821.13;5029453;28;20242;-80
2021/12/06 06:38:47;;;;;;;33.47;25.97;;;;;;;5.52;92.15;91822.19;5030618;28;20190;-81
2021/12/06 06:41:12;;;;;;;30.13;24.80;;;;;;;5.75;90.62;91821.53;5029465;28;20186;-80
2021/12/06 06:43:38;;;;;;;30.03;24.03;;;;;;;5.68;90.85;91792.59;5030162;28;20195;-80
2021/12/06 06:46:04;;;;;;;30.40;23.17;;;;;;;5.96;89.86;91812.66;5029196;28;20191;-80
2021/12/06 06:48:30;;;;;;;26.03;23.27;;;;;;;6.09;89.35;91814.59;5029056;28;20281;-80
2021/12/06 06:50:56;;;;;;;27.77;21.90;;;;;;;6.19;88.64;91817.91;5030416;28;20190;-80
2021/12/06 06:53:21;;;;;;;30.17;24.87;;;;;;;5.86;89.08;91791.97;5029720;28;20222;-81
2021/12/06 06:55:47;;;;;;;32.13;26.90;;;;;;;5.72;89.53;91833.22;5029797;28;20241;-81
2021/12/06 06:58:12;;;;;;;28.53;23.87;;;;;;;5.92;89.47;91840.13;5029625;28;21175;-80
2021/12/06 07:00:38;;;;;;;28.00;23.27;;;;;;;6.00;89.73;91832.56;5030712;28;20254;-80
2021/12/06 07:03:06;;;;;;;27.50;21.87;;;;;;;6.13;89.34;91831.94;5029257;28;20230;-80
2021/12/06 07:05:32;;;;;;;24.50;20.77;;;;;;;6.32;88.54;91826.88;5028263;28;20195;-80
2021/12/06 07:07:57;;;;;;;24.60;21.97;;;;;;;6.51;87.25;91832.94;5027180;28;20226;-80
2021/12/06 07:10:23;;;;;;;21.90;19.67;;;;;;;6.33;87.26;91828.44;5029902;28;20201;-81
2021/12/06 07:12:51;;;;;;;24.17;21.57;;;;;;;6.53;87.56;91823.06;5028825;28;20326;-80
2021/12/06 07:15:27;;;;;;;22.63;20.40;;;;;;;6.60;87.19;91813.16;5029100;28;20260;-80
2021/12/06 07:17:53;;;;;;;21.70;19.70;;;;;;;6.64;85.68;91798.59;5028805;28;20230;-80
2021/12/06 07:20:20;;;;;;;20.80;18.80;;;;;;;6.85;85.73;91810.31;5029335;28;20218;-80
2021/12/06 07:22:47;;;;;;;19.97;18.07;;;;;;;6.82;84.20;91790.09;5028374;28;20230;-80
2021/12/06 07:25:15;;;;;;;19.30;17.57;;;;;;;6.94;82.93;91819.03;5029713;28;20262;-80
2021/12/06 07:27:41;;;;;;;18.50;16.70;;;;;;;6.70;83.28;91801.91;5030054;28;20222;-80
2021/12/06 07:30:09;;;;;;;17.47;15.67;;;;;;;6.87;83.36;91810.81;5033330;28;20186;-80
2021/12/06 07:32:34;;;;;;;16.50;15.10;;;;;;;6.86;82.36;91806.69;5029157;28;20222;-80
2021/12/06 07:35:00;;;;;;;17.03;15.53;;;;;;;6.39;84.35;91786.66;5033373;28;20236;-80
2021/12/06 07:37:25;;;;;;;15.87;14.57;;;;;;;6.67;84.15;91823.19;5032327;28;20237;-80
2021/12/06 07:39:51;;;;;;;17.37;15.80;;;;;;;6.65;84.46;91840.84;5032465;28;20209;-80
2021/12/06 07:42:17;;;;;;;16.10;14.70;;;;;;;6.48;83.97;91815.34;5031949;28;20242;-80
2021/12/06 07:44:43;;;;;;;16.60;14.97;;;;;;;6.91;83.58;91829.97;5033035;28;20186;-80
2021/12/06 07:47:11;;;;;;;15.53;14.33;;;;;;;6.91;83.03;91822.19;5031047;28;20708;-80
2021/12/06 07:49:37;;;;;;;15.97;14.43;;;;;;;6.66;83.97;91796.50;5048622;28;20194;-81
2021/12/06 07:52:06;;;;;;;15.47;14.17;;;;;;;6.86;84.92;91850.00;5033267;28;20227;-80
2021/12/06 07:54:33;;;;;;;16.63;15.13;;;;;;;6.89;83.80;91832.06;5032579;28;20214;-81
2021/12/06 07:56:59;;;;;;;17.07;15.57;;;;;;;7.04;83.43;91802.59;5032271;28;20234;-75
2021/12/06 07:59:24;;;;;;;17.43;15.90;;;;;;;7.20;83.98;91789.19;5027534;28;20195;-73
2021/12/06 08:01:50;;;;;;;17.07;15.53;;;;;;;7.45;82.76;91804.44;5030882;28;20234;-76
2021/12/06 08:04:16;;;;;;;16.17;14.87;;;;;;;7.56;83.22;91805.09;5029300;28;20677;-74
2021/12/06 08:06:41;;;;;;;17.00;15.50;;;;;;;7.47;83.64;91817.16;5030655;28;20222;-74
2021/12/06 14:58:42;;;;;;;26.33;23.53;;;;;;;7.48;92.24;91668.09;5081459;28;20204;-76
2021/12/06 15:01:09;;;;;;;22.03;19.97;;;;;;;7.52;92.95;91689.81;5092202;28;20862;-76
2021/12/06 15:03:40;;;;;;;26.07;21.40;;;;;;;7.52;93.72;91682.81;5103062;28;20192;-75
2021/12/06 15:06:07;;;;;;;81.27;40.63;;;;;;;7.67;92.73;91687.03;5102416;28;20234;-75
2021/12/06 15:08:44;;;;;;;23.60;19.70;;;;;;;7.55;92.49;91674.47;5104398;28;20188;-76
2021/12/06 15:11:17;;;;;;;20.90;18.60;;;;;;;7.68;92.29;91671.16;5105032;28;20228;-75
2021/12/06 15:13:45;;;;;;;20.17;18.07;;;;;;;7.58;92.55;91655.72;5105107;28;20193;-75
2021/12/06 15:16:14;;;;;;;19.70;17.80;;;;;;;7.53;94.13;91681.75;5101907;28;20257;-75
2021/12/06 15:18:40;;;;;;;17.63;15.93;;;;;;;7.57;93.82;91671.56;5102691;28;20184;-76
2021/12/06 15:21:08;;;;;;;17.87;16.07;;;;;;;7.70;93.18;91676.06;5099075;28;20299;-75
2021/12/06 15:23:43;;;;;;;22.80;19.67;;;;;;;7.60;93.55;91661.41;5095738;28;20196;-75
2021/12/06 15:26:13;;;;;;;47.43;28.90;;;;;;;7.53;93.73;91652.44;5098030;28;20266;-75
2021/12/06 15:28:40;;;;;;;33.37;29.90;;;;;;;7.63;94.15;91681.63;5099336;28;20307;-76
2021/12/06 15:31:07;;;;;;;34.10;30.47;;;;;;;7.58;94.61;91671.28;5101658;28;20241;-75
2021/12/06 15:33:34;;;;;;;43.47;40.10;;;;;;;7.61;95.14;91675.16;5102807;28;20200;-75
2021/12/06 15:36:03;;;;;;;39.70;37.07;;;;;;;7.57;95.47;91682.75;5103434;28;20228;-74
2021/12/06 15:38:33;;;;;;;31.07;28.53;;;;;;;7.62;95.52;91680.09;5104033;28;20226;-75
2021/12/06 15:41:04;;;;;;;30.70;28.53;;;;;;;7.53;96.55;91684.34;5103536;28;22448;-75
2021/12/06 15:43:32;;;;;;;20.33;17.80;;;;;;;7.62;96.59;91689.69;5103718;28;20187;-75
2021/12/06 15:45:58;;;;;;;21.23;17.90;;;;;;;7.52;96.53;91669.84;5103186;28;20230;-74
2021/12/06 15:48:29;;;;;;;24.20;21.57;;;;;;;7.35;98.54;91658.41;5103995;28;20180;-75
2021/12/06 15:50:55;;;;;;;29.33;24.03;;;;;;;7.45;100.00;91677.22;5105597;28;20261;-74
2021/12/06 15:53:22;;;;;;;29.20;21.73;;;;;;;7.35;99.96;91656.59;5103985;28;21262;-74
2021/12/06 15:55:55;;;;;;;23.37;19.57;;;;;;;7.74;98.83;91677.81;5103264;28;20229;-73
2021/12/06 15:58:21;;;;;;;27.63;21.57;;;;;;;7.60;98.33;91682.19;5103988;28;20247;-73
2021/12/06 16:00:52;;;;;;;27.73;22.23;;;;;;;7.64;98.51;91683.16;5103054;28;20298;-73
2021/12/06 16:03:25;;;;;;;29.00;22.63;;;;;;;7.54;98.57;91667.75;5105136;28;20197;-72
2021/12/06 16:05:50;;;;;;;73.00;50.47;;;;;;;7.53;98.89;91655.78;5101361;28;20228;-73
2021/12/06 16:08:18;;;;;;;81.60;54.83;;;;;;;7.48;99.25;91661.06;5090925;28;20180;-73
2021/12/06 16:10:46;;;;;;;37.53;28.13;;;;;;;7.53;99.42;91673.97;5089912;28;20240;-73
2021/12/06 16:13:19;;;;;;;35.60;26.90;;;;;;;7.54;99.66;91680.72;5088859;28;20215;-74
2021/12/06 16:15:49;;;;;;;44.27;31.53;;;;;;;7.64;99.39;91672.00;5090675;28;20220;-74
2021/12/06 16:18:21;;;;;;;45.63;35.73;;;;;;;7.66;99.23;91675.06;5088736;28;20201;-74
2021/12/06 16:21:01;;;;;;;37.97;29.43;;;;;;;7.61;99.55;91681.13;5090211;28;20244;-74
2021/12/06 16:23:34;;;;;;;35.07;27.00;;;;;;;7.62;99.77;91663.72;5090903;28;20189;-74
2021/12/06 16:26:03;;;;;;;36.40;28.80;;;;;;;7.57;99.78;91666.38;5090320;28;20232;-74
2021/12/06 16:28:29;;;;;;;30.07;26.77;;;;;;;7.56;99.83;91675.25;5090313;28;20188;-75
2021/12/06 16:31:01;;;;;;;38.30;31.23;;;;;;;7.66;99.85;91681.06;5089154;28;20239;-74
2021/12/06 16:33:47;;;;;;;36.13;29.03;;;;;;;7.71;99.73;91682.78;5090590;28;20185;-74
2021/12/06 16:36:16;;;;;;;32.47;27.43;;;;;;;7.62;100.00;91685.28;5090322;28;20247;-76
2021/12/06 16:38:42;;;;;;;46.70;34.47;;;;;;;7.61;99.89;91688.16;5089836;28;20189;-74
2021/12/06 16:41:21;;;;;;;34.97;29.17;;;;;;;7.50;100.00;91699.75;5090241;28;20233;-76
2021/12/06 16:43:49;;;;;;;39.63;30.37;;;;;;;7.54;100.00;91692.94;5089211;28;20181;-73
2021/12/06 16:46:17;;;;;;;38.70;30.30;;;;;;;7.64;99.76;91698.72;5089227;28;20227;-74
2021/12/06 16:48:54;;;;;;;41.10;33.60;;;;;;;7.43;100.00;91694.91;5089478;28;20188;-82
2021/12/06 16:51:33;;;;;;;48.57;36.10;;;;;;;7.32;100.00;91698.69;5088125;28;20209;-80
2021/12/06 16:54:12;;;;;;;46.27;36.13;;;;;;;7.45;100.00;91705.78;5089091;28;20204;-81
2021/12/06 16:56:37;;;;;;;52.23;36.50;;;;;;;7.43;100.00;91710.47;5090729;28;21177;-81
2021/12/06 16:59:15;;;;;;;48.73;34.13;;;;;;;7.54;100.00;91709.28;5087622;28;20193;-81
2021/12/06 17:01:41;;;;;;;52.07;36.67;;;;;;;7.29;100.00;91706.25;5087215;28;20216;-82
2021/12/06 17:04:14;;;;;;;48.93;35.93;;;;;;;7.04;100.00;91684.00;5087381;28;20227;-81
2021/12/06 17:06:39;;;;;;;45.77;34.80;;;;;;;7.34;100.00;91719.94;5088211;28;20214;-82
2021/12/06 17:09:06;;;;;;;47.80;35.00;;;;;;;7.17;100.00;91698.91;5088655;28;20189;-82
2021/12/06 17:11:33;;;;;;;51.87;36.83;;;;;;;7.26;100.00;91706.81;5088244;28;20225;-81
2021/12/06 17:14:09;;;;;;;48.17;35.20;;;;;;;7.24;100.00;91707.09;5089035;28;20209;-81
2021/12/06 17:16:39;;;;;;;50.30;37.70;;;;;;;7.18;100.00;91697.84;5088608;28;20449;-83
2021/12/06 17:19:11;;;;;;;69.73;48.50;;;;;;;7.27;100.00;91687.63;5088225;28;20212;-83
2021/12/06 17:21:38;;;;;;;79.63;55.60;;;;;;;7.26;100.00;91696.44;5089790;28;20234;-81
2021/12/06 17:24:04;;;;;;;54.07;39.30;;;;;;;7.11;100.00;91704.44;5090025;28;20465;-81
2021/12/06 17:26:30;;;;;;;55.27;38.90;;;;;;;7.32;100.00;91690.13;5089725;28;20231;-80
2021/12/06 17:29:04;;;;;;;62.80;40.40;;;;;;;7.44;100.00;91701.63;5088960;28;20256;-81
2021/12/06 17:31:37;;;;;;;65.07;45.47;;;;;;;7.51;99.56;91709.84;5088760;28;20279;-81
2021/12/06 17:34:10;;;;;;;52.73;38.10;;;;;;;7.51;99.17;91714.25;5089183;28;20192;-81
2021/12/06 17:37:00;;;;;;;48.20;34.53;;;;;;;7.49;99.33;91714.53;5087923;28;20228;-81
2021/12/06 17:39:30;;;;;;;40.60;31.00;;;;;;;7.44;98.57;91693.84;5078983;28;20196;-79
2021/12/06 17:42:00;;;;;;;37.67;28.63;;;;;;;7.49;98.86;91706.75;5089208;28;20216;-80
2021/12/06 17:44:26;;;;;;;63.47;35.77;;;;;;;7.47;99.02;91702.91;5088967;28;20264;-81
2021/12/06 17:46:54;;;;;;;51.57;29.10;;;;;;;7.40;98.98;91682.47;5088829;28;20228;-82
2021/12/06 17:49:20;;;;;;;130.63;47.50;;;;;;;7.37;99.09;91688.25;5090497;28;20274;-82
2021/12/06 17:51:49;;;;;;;211.57;68.37;;;;;;;7.44;98.83;91688.63;5088624;28;20250;-81
2021/12/06 17:54:20;;;;;;;191.27;67.13;;;;;;;7.45;98.72;91685.00;5089700;28;20228;-82
2021/12/06 17:56:49;;;;;;;190.90;71.63;;;;;;;7.38;99.12;91678.59;5089355;28;20230;-81
2021/12/06 17:59:15;;;;;;;191.17;78.47;;;;;;;7.34;99.33;91678.41;5090217;28;20203;-81
2021/12/06 18:01:44;;;;;;;148.00;69.43;;;;;;;7.23;99.54;91674.41;5089842;28;20221;-81
2021/12/06 18:04:30;;;;;;;101.90;53.77;;;;;;;7.20;100.00;91676.78;5088980;28;20268;-82
2021/12/06 18:06:55;;;;;;;81.20;46.13;;;;;;;7.11;100.00;91679.25;5088578;28;20255;-81
2021/12/06 18:09:25;;;;;;;39.80;27.73;;;;;;;7.02;100.00;91654.22;5090227;28;20197;-81
2021/12/06 18:11:52;;;;;;;26.00;23.20;;;;;;;7.14;100.00;91670.91;5088300;28;20221;-80
2021/12/06 18:14:18;;;;;;;16.27;14.90;;;;;;;7.17;100.00;91672.94;5088012;28;20193;-81
2021/12/06 18:16:46;;;;;;;16.03;14.63;;;;;;;7.18;100.00;91679.66;5088045;28;20220;-81
2021/12/06 18:19:13;;;;;;;20.07;18.33;;;;;;;7.15;100.00;91684.63;5088972;28;20196;-81
2021/12/06 18:21:40;;;;;;;20.60;18.50;;;;;;;7.10;100.00;91682.88;5087649;28;20224;-81
2021/12/06 18:24:07;;;;;;;21.67;19.33;;;;;;;7.20;100.00;91676.78;5088640;28;20192;-81
2021/12/06 18:26:38;;;;;;;29.30;21.13;;;;;;;7.01;100.00;91663.81;5089147;28;20288;-81
2021/12/06 18:29:04;;;;;;;16.57;14.97;;;;;;;7.20;100.00;91669.78;5088200;28;20189;-82
2021/12/06 18:31:31;;;;;;;16.43;14.90;;;;;;;7.32;98.68;91664.94;5088079;28;20324;-82
2021/12/06 18:33:56;;;;;;;18.07;16.27;;;;;;;6.90;99.68;91620.88;5088541;28;20177;-82